Time,TemperatureF,DewpointF,PressureIn,WindDirection,WindDirectionDegrees,WindSpeedMPH,WindSpeedGustMPH,Humidity,HourlyPrecipIn,Conditions,Clouds,dailyrainin,SoftwareType,DateUTC
2013-09-01 00:01:00,61.7,60.5,29.86,NE,44,0.0,1.0,96,0.00,,BKN010,0.00,VWS V13.01,2013-09-01 04:01:00,
2013-09-01 00:02:00,61.7,60.5,29.86,NE,44,0.0,1.0,96,0.00,,BKN010,0.00,VWS V13.01,2013-09-01 04:02:00,
2013-09-01 00:07:00,61.7,60.5,29.86,NE,44,0.0,2.0,96,0.00,,BKN010,0.00,VWS V13.01,2013-09-01 04:07:00,
2013-09-01 00:12:00,61.7,60.5,29.86,NE,44,2.0,2.0,96,0.00,,BKN010,0.00,VWS V13.01,2013-09-01 04:12:00,
2013-09-01 00:17:00,61.6,60.5,29.86,NE,44,1.0,2.0,96,0.00,,BKN010,0.00,VWS V13.01,2013-09-01 04:17:00,
2013-09-01 00:22:00,61.5,60.3,29.85,NE,44,1.0,2.0,96,0.00,,BKN010,0.00,VWS V13.01,2013-09-01 04:22:00,
2013-09-01 00:27:00,61.3,60.2,29.86,NE,44,1.0,3.0,96,0.00,,BKN010,0.00,VWS V13.01,2013-09-01 04:27:00,
2013-09-01 00:32:00,61.2,60.0,29.85,NE,44,1.0,2.0,96,0.00,,BKN010,0.00,VWS V13.01,2013-09-01 04:32:00,
2013-09-01 00:37:00,61.1,60.0,29.85,NE,44,1.0,2.0,96,0.00,,BKN010,0.00,VWS V13.01,2013-09-01 04:37:00,
2013-09-01 00:42:00,61.0,59.9,29.85,NE,44,2.0,2.0,96,0.00,,BKN010,0.00,VWS V13.01,2013-09-01 04:42:00,
2013-09-01 00:47:00,60.9,59.8,29.85,NE,44,1.0,2.0,96,0.00,,BKN010,0.00,VWS V13.01,2013-09-01 04:47:00,
2013-09-01 00:52:00,60.8,59.7,29.85,NE,44,1.0,2.0,96,0.00,,BKN010,0.00,VWS V13.01,2013-09-01 04:52:00,
2013-09-01 00:57:00,60.8,59.7,29.85,NE,44,1.0,2.0,96,0.00,,BKN010,0.00,VWS V13.01,2013-09-01 04:57:00,
2013-09-01 01:02:00,60.7,59.6,29.85,NE,44,2.0,2.0,96,0.00,,OVC010,0.00,VWS V13.01,2013-09-01 05:02:00,
2013-09-01 01:07:00,60.7,59.8,29.85,NE,44,1.0,2.0,97,0.00,,OVC010,0.00,VWS V13.01,2013-09-01 05:07:00,
2013-09-01 01:12:00,60.7,59.8,29.85,NE,44,1.0,2.0,97,0.00,,OVC010,0.00,VWS V13.01,2013-09-01 05:12:00,
2013-09-01 01:17:00,60.7,59.8,29.85,NE,44,0.0,2.0,97,0.00,,OVC010,0.00,VWS V13.01,2013-09-01 05:17:00,
2013-09-01 01:22:00,60.7,59.8,29.85,NE,44,0.0,1.0,97,0.00,,OVC010,0.00,VWS V13.01,2013-09-01 05:22:00,
2013-09-01 01:27:00,60.7,59.8,29.84,NE,44,2.0,2.0,97,0.00,,OVC010,0.00,VWS V13.01,2013-09-01 05:27:00,
2013-09-01 01:32:00,60.6,59.5,29.84,NE,44,2.0,2.0,96,0.00,,OVC010,0.00,VWS V13.01,2013-09-01 05:32:00,
2013-09-01 01:37:00,60.5,59.7,29.84,NE,44,2.0,3.0,97,0.00,,OVC010,0.00,VWS V13.01,2013-09-01 05:37:00,
2013-09-01 01:42:00,60.5,59.7,29.84,NE,44,1.0,3.0,97,0.00,,OVC010,0.00,VWS V13.01,2013-09-01 05:42:00,
2013-09-01 01:47:00,60.5,59.4,29.85,NE,44,2.0,3.0,96,0.00,,OVC010,0.00,VWS V13.01,2013-09-01 05:47:00,
2013-09-01 01:52:00,60.4,59.3,29.85,NE,44,1.0,3.0,96,0.00,,OVC010,0.00,VWS V13.01,2013-09-01 05:52:00,
2013-09-01 01:58:00,60.4,59.5,29.84,NE,44,2.0,2.0,97,0.00,,OVC010,0.00,VWS V13.01,2013-09-01 05:58:00,
2013-09-01 02:03:00,60.5,59.7,29.84,NE,44,2.0,2.0,97,0.00,,,0.00,VWS V13.01,2013-09-01 06:03:00,
2013-09-01 02:07:00,60.6,59.8,29.84,NE,44,2.0,3.0,97,0.00,,,0.00,VWS V13.01,2013-09-01 06:07:00,
2013-09-01 02:13:00,60.8,60.0,29.84,NE,44,2.0,3.0,97,0.00,,,0.00,VWS V13.01,2013-09-01 06:13:00,
2013-09-01 02:18:00,61.0,60.2,29.84,NE,44,2.0,3.0,97,0.00,,,0.00,VWS V13.01,2013-09-01 06:18:00,
2013-09-01 02:23:00,61.2,60.3,29.85,NE,44,2.0,3.0,97,0.00,,,0.00,VWS V13.01,2013-09-01 06:23:00,
2013-09-01 02:28:00,61.3,60.4,29.84,NE,44,2.0,3.0,97,0.00,,,0.00,VWS V13.01,2013-09-01 06:28:00,
2013-09-01 02:33:00,61.5,60.6,29.84,NE,44,0.0,2.0,97,0.00,,,0.00,VWS V13.01,2013-09-01 06:33:00,
2013-09-01 02:38:00,61.6,60.7,29.84,NE,44,0.0,2.0,97,0.00,,,0.00,VWS V13.01,2013-09-01 06:38:00,
2013-09-01 02:43:00,61.8,60.9,29.84,NE,44,1.0,2.0,97,0.00,,,0.00,VWS V13.01,2013-09-01 06:43:00,
2013-09-01 02:48:00,61.8,60.9,29.84,NE,44,0.0,1.0,97,0.00,,,0.00,VWS V13.01,2013-09-01 06:48:00,
2013-09-01 02:53:00,61.9,61.0,29.84,NE,44,0.0,1.0,97,0.00,,,0.00,VWS V13.01,2013-09-01 06:53:00,
2013-09-01 02:58:00,62.1,61.5,29.84,NE,44,0.0,1.0,98,0.00,,,0.00,VWS V13.01,2013-09-01 06:58:00,
2013-09-01 03:03:00,62.2,61.3,29.83,NE,44,0.0,1.0,97,0.00,,,0.00,VWS V13.01,2013-09-01 07:03:00,
2013-09-01 03:08:00,62.3,61.4,29.83,NE,44,0.0,2.0,97,0.00,,,0.00,VWS V13.01,2013-09-01 07:08:00,
2013-09-01 03:13:00,62.3,61.4,29.83,NE,44,0.0,1.0,97,0.00,,,0.00,VWS V13.01,2013-09-01 07:13:00,
2013-09-01 03:18:00,62.4,61.5,29.83,NE,44,0.0,1.0,97,0.00,,,0.00,VWS V13.01,2013-09-01 07:18:00,
2013-09-01 03:23:00,62.4,61.5,29.83,NE,44,0.0,1.0,97,0.00,,,0.00,VWS V13.01,2013-09-01 07:23:00,
2013-09-01 03:28:00,62.4,61.5,29.83,NE,44,0.0,1.0,97,0.00,,,0.00,VWS V13.01,2013-09-01 07:28:00,
2013-09-01 03:33:00,62.4,61.5,29.83,NE,44,0.0,0.0,97,0.00,,,0.00,VWS V13.01,2013-09-01 07:33:00,
2013-09-01 03:38:00,62.4,61.5,29.82,NE,44,0.0,1.0,97,0.00,,,0.00,VWS V13.01,2013-09-01 07:38:00,
2013-09-01 03:43:00,62.4,61.5,29.82,NE,44,0.0,1.0,97,0.00,,,0.00,VWS V13.01,2013-09-01 07:43:00,
2013-09-01 03:48:00,62.4,61.5,29.82,NE,44,0.0,1.0,97,0.00,,,0.00,VWS V13.01,2013-09-01 07:48:00,
2013-09-01 03:53:00,62.4,61.5,29.82,NE,44,0.0,0.0,97,0.00,,,0.00,VWS V13.01,2013-09-01 07:53:00,
2013-09-01 03:58:00,62.4,61.5,29.82,NE,44,0.0,1.0,97,0.00,,,0.00,VWS V13.01,2013-09-01 07:58:00,
2013-09-01 04:03:00,62.5,61.6,29.81,NE,44,0.0,0.0,97,0.00,,,0.00,VWS V13.01,2013-09-01 08:03:00,
2013-09-01 04:08:00,62.4,61.5,29.82,NE,44,0.0,1.0,97,0.00,,,0.00,VWS V13.01,2013-09-01 08:08:00,
2013-09-01 04:13:00,62.3,61.4,29.82,NE,44,0.0,1.0,97,0.00,,,0.00,VWS V13.01,2013-09-01 08:13:00,
2013-09-01 04:18:00,62.2,61.3,29.82,NE,44,0.0,1.0,97,0.00,,,0.00,VWS V13.01,2013-09-01 08:18:00,
2013-09-01 04:23:00,62.2,61.3,29.81,NE,44,0.0,1.0,97,0.00,,,0.00,VWS V13.01,2013-09-01 08:23:00,
2013-09-01 04:28:00,62.2,61.0,29.81,NE,44,0.0,1.0,96,0.00,,,0.00,VWS V13.01,2013-09-01 08:28:00,
2013-09-01 04:33:00,62.1,61.2,29.81,NE,44,0.0,0.0,97,0.00,,,0.00,VWS V13.01,2013-09-01 08:33:00,
2013-09-01 04:38:00,62.1,61.0,29.81,NE,44,0.0,1.0,96,0.00,,,0.00,VWS V13.01,2013-09-01 08:38:00,
2013-09-01 04:43:00,62.1,61.2,29.81,NE,44,0.0,1.0,97,0.00,,,0.00,VWS V13.01,2013-09-01 08:43:00,
2013-09-01 04:48:00,62.1,61.2,29.81,NE,44,0.0,1.0,97,0.00,,,0.00,VWS V13.01,2013-09-01 08:48:00,
2013-09-01 04:54:00,62.1,61.2,29.81,NE,44,0.0,0.0,97,0.00,,,0.00,VWS V13.01,2013-09-01 08:54:00,
2013-09-01 04:59:00,62.2,61.3,29.80,NE,44,0.0,1.0,97,0.00,,,0.00,VWS V13.01,2013-09-01 08:59:00,
2013-09-01 05:04:00,62.3,61.4,29.81,NE,44,0.0,1.0,97,0.00,,OVC005,0.00,VWS V13.01,2013-09-01 09:04:00,
2013-09-01 05:09:00,62.4,61.2,29.80,NE,44,1.0,1.0,96,0.00,,OVC005,0.00,VWS V13.01,2013-09-01 09:09:00,
2013-09-01 05:14:00,62.5,61.6,29.81,NE,44,1.0,1.0,97,0.00,,OVC005,0.00,VWS V13.01,2013-09-01 09:14:00,
2013-09-01 05:19:00,62.5,61.6,29.81,NE,44,0.0,1.0,97,0.00,,OVC005,0.00,VWS V13.01,2013-09-01 09:19:00,
2013-09-01 05:24:00,62.6,61.5,29.81,NE,44,0.0,1.0,96,0.00,,OVC005,0.00,VWS V13.01,2013-09-01 09:24:00,
2013-09-01 05:29:00,62.6,61.5,29.81,NE,44,0.0,1.0,96,0.00,,OVC005,0.00,VWS V13.01,2013-09-01 09:29:00,
2013-09-01 05:34:00,62.7,61.5,29.81,NE,44,0.0,1.0,96,0.00,,OVC005,0.00,VWS V13.01,2013-09-01 09:34:00,
2013-09-01 05:39:00,62.6,61.5,29.81,NE,44,0.0,1.0,96,0.00,,OVC005,0.00,VWS V13.01,2013-09-01 09:39:00,
2013-09-01 05:44:00,62.6,61.5,29.81,NNE,17,0.0,3.0,96,0.00,,OVC005,0.00,VWS V13.01,2013-09-01 09:44:00,
2013-09-01 05:49:00,62.6,61.5,29.81,NNE,17,0.0,1.0,96,0.00,,OVC005,0.00,VWS V13.01,2013-09-01 09:49:00,
2013-09-01 05:54:00,62.5,61.3,29.81,NNE,17,0.0,2.0,96,0.00,,OVC005,0.00,VWS V13.01,2013-09-01 09:54:00,
2013-09-01 05:59:00,62.4,61.2,29.81,NNE,17,0.0,0.0,96,0.00,,OVC005,0.00,VWS V13.01,2013-09-01 09:59:00,
2013-09-01 06:04:00,62.4,61.2,29.80,NNE,17,0.0,0.0,96,0.00,,,0.00,VWS V13.01,2013-09-01 10:04:00,
2013-09-01 06:09:00,62.4,61.2,29.80,NNE,17,0.0,0.0,96,0.00,,,0.00,VWS V13.01,2013-09-01 10:09:00,
2013-09-01 06:14:00,62.3,61.2,29.80,NNE,17,0.0,1.0,96,0.00,,,0.00,VWS V13.01,2013-09-01 10:14:00,
2013-09-01 06:19:00,62.2,61.0,29.81,NNE,17,0.0,0.0,96,0.00,,,0.00,VWS V13.01,2013-09-01 10:19:00,
2013-09-01 06:24:00,62.2,61.0,29.81,NNE,17,0.0,0.0,96,0.00,,,0.00,VWS V13.01,2013-09-01 10:24:00,
2013-09-01 06:29:00,62.2,61.0,29.81,NNE,17,0.0,0.0,96,0.00,,,0.00,VWS V13.01,2013-09-01 10:29:00,
2013-09-01 06:34:00,62.2,61.0,29.81,NNE,17,0.0,1.0,96,0.00,,,0.00,VWS V13.01,2013-09-01 10:34:00,
2013-09-01 06:39:00,62.2,61.0,29.81,NNE,17,0.0,1.0,96,0.00,,,0.00,VWS V13.01,2013-09-01 10:39:00,
2013-09-01 06:44:00,62.2,61.0,29.81,NNE,17,0.0,1.0,96,0.00,,,0.00,VWS V13.01,2013-09-01 10:44:00,
2013-09-01 06:49:00,62.0,60.8,29.81,NNE,17,0.0,1.0,96,0.00,,,0.00,VWS V13.01,2013-09-01 10:49:00,
2013-09-01 06:54:00,61.9,60.8,29.81,NNE,17,0.0,1.0,96,0.00,,,0.00,VWS V13.01,2013-09-01 10:54:00,
2013-09-01 06:59:00,61.9,60.8,29.81,NNE,17,0.0,1.0,96,0.00,,,0.00,VWS V13.01,2013-09-01 10:59:00,
2013-09-01 07:04:00,61.9,60.8,29.81,NNE,17,0.0,0.0,96,0.00,,,0.00,VWS V13.01,2013-09-01 11:04:00,
2013-09-01 07:09:00,62.0,60.8,29.81,NNE,17,0.0,1.0,96,0.00,,,0.00,VWS V13.01,2013-09-01 11:09:00,
2013-09-01 07:14:00,62.0,60.8,29.81,NNE,17,0.0,0.0,96,0.00,,,0.00,VWS V13.01,2013-09-01 11:14:00,
2013-09-01 07:19:00,62.1,61.0,29.81,NNE,17,0.0,0.0,96,0.00,,,0.00,VWS V13.01,2013-09-01 11:19:00,
2013-09-01 07:24:00,62.2,61.0,29.81,NNE,17,0.0,0.0,96,0.00,,,0.00,VWS V13.01,2013-09-01 11:24:00,
2013-09-01 07:29:00,62.3,61.2,29.81,NNE,16,1.0,2.0,96,0.00,,,0.00,VWS V13.01,2013-09-01 11:29:00,
2013-09-01 07:34:00,62.4,61.2,29.81,NNE,16,0.0,1.0,96,0.00,,,0.00,VWS V13.01,2013-09-01 11:34:00,
2013-09-01 07:39:00,62.5,61.6,29.81,NNE,16,0.0,0.0,97,0.00,,,0.00,VWS V13.01,2013-09-01 11:39:00,
2013-09-01 07:44:00,62.6,61.5,29.81,NNE,16,0.0,1.0,96,0.00,,,0.00,VWS V13.01,2013-09-01 11:44:00,
2013-09-01 07:49:00,62.7,61.5,29.80,NNE,16,0.0,1.0,96,0.00,,,0.00,VWS V13.01,2013-09-01 11:49:00,
2013-09-01 07:54:00,62.8,61.7,29.80,NNE,16,0.0,0.0,96,0.00,,,0.00,VWS V13.01,2013-09-01 11:54:00,
2013-09-01 07:59:00,62.9,61.8,29.80,NNE,16,0.0,0.0,96,0.00,,,0.00,VWS V13.01,2013-09-01 11:59:00,
2013-09-01 08:04:00,63.0,61.8,29.80,NNE,16,0.0,1.0,96,0.00,,,0.00,VWS V13.01,2013-09-01 12:04:00,
2013-09-01 08:09:00,63.2,62.0,29.80,NNE,16,0.0,1.0,96,0.00,,,0.00,VWS V13.01,2013-09-01 12:09:00,
2013-09-01 08:14:00,63.3,62.1,29.80,NNE,17,0.0,1.0,96,0.00,,,0.00,VWS V13.01,2013-09-01 12:14:00,
2013-09-01 08:19:00,63.4,62.0,29.80,NNE,17,0.0,1.0,95,0.00,,,0.00,VWS V13.01,2013-09-01 12:19:00,
2013-09-01 08:24:00,63.5,62.0,29.81,NNE,15,0.0,1.0,95,0.00,,,0.00,VWS V13.01,2013-09-01 12:24:00,
2013-09-01 08:29:00,63.7,62.2,29.81,NNE,15,0.0,1.0,95,0.00,,,0.00,VWS V13.01,2013-09-01 12:29:00,
2013-09-01 08:34:00,63.9,62.4,29.81,NNE,15,0.0,1.0,95,0.00,,,0.00,VWS V13.01,2013-09-01 12:34:00,
2013-09-01 08:39:00,64.0,62.5,29.81,NNE,15,0.0,0.0,95,0.00,,,0.00,VWS V13.01,2013-09-01 12:39:00,
2013-09-01 08:44:00,64.1,62.6,29.81,North,350,0.0,1.0,95,0.00,,,0.00,VWS V13.01,2013-09-01 12:44:00,
2013-09-01 08:49:00,64.2,62.4,29.81,North,350,0.0,1.0,94,0.00,,,0.00,VWS V13.01,2013-09-01 12:49:00,
2013-09-01 08:54:00,64.2,62.4,29.80,North,350,0.0,1.0,94,0.00,,,0.00,VWS V13.01,2013-09-01 12:54:00,
2013-09-01 08:59:00,64.3,62.5,29.80,North,350,0.0,1.0,94,0.00,,,0.00,VWS V13.01,2013-09-01 12:59:00,
2013-09-01 09:04:00,64.3,62.2,29.79,North,5,1.0,2.0,93,0.00,,,0.00,VWS V13.01,2013-09-01 13:04:00,
2013-09-01 09:09:00,64.4,62.3,29.79,NE,43,0.0,2.0,93,0.00,,,0.00,VWS V13.01,2013-09-01 13:09:00,
2013-09-01 09:14:00,64.5,62.4,29.80,NE,55,0.0,2.0,93,0.00,,,0.00,VWS V13.01,2013-09-01 13:14:00,
2013-09-01 09:19:00,64.6,62.5,29.80,NE,55,0.0,0.0,93,0.00,,,0.00,VWS V13.01,2013-09-01 13:19:00,
2013-09-01 09:24:00,64.8,62.7,29.80,NE,54,1.0,1.0,93,0.00,,,0.00,VWS V13.01,2013-09-01 13:24:00,
2013-09-01 09:29:00,65.0,62.9,29.79,NE,54,0.0,1.0,93,0.00,,,0.00,VWS V13.01,2013-09-01 13:29:00,
2013-09-01 09:34:00,65.2,63.1,29.79,NE,54,0.0,1.0,93,0.00,,,0.00,VWS V13.01,2013-09-01 13:34:00,
2013-09-01 09:39:00,65.4,63.3,29.79,NE,53,0.0,2.0,93,0.00,,,0.00,VWS V13.01,2013-09-01 13:39:00,
2013-09-01 09:44:00,65.6,63.5,29.80,NE,53,0.0,1.0,93,0.00,,,0.00,VWS V13.01,2013-09-01 13:44:00,
2013-09-01 09:49:00,65.8,63.4,29.80,NE,53,0.0,1.0,92,0.00,,,0.00,VWS V13.01,2013-09-01 13:49:00,
2013-09-01 09:54:00,66.0,63.6,29.80,NE,53,0.0,1.0,92,0.00,,,0.00,VWS V13.01,2013-09-01 13:54:00,
2013-09-01 09:59:00,66.2,63.5,29.80,NE,53,0.0,2.0,91,0.00,,,0.00,VWS V13.01,2013-09-01 13:59:00,
2013-09-01 10:04:00,66.6,64.2,29.80,ENE,57,1.0,3.0,92,0.00,,OVC015,0.00,VWS V13.01,2013-09-01 14:04:00,
2013-09-01 10:09:00,67.2,64.8,29.80,ENE,63,0.0,2.0,92,0.00,,OVC015,0.00,VWS V13.01,2013-09-01 14:09:00,
2013-09-01 10:15:00,67.8,64.8,29.80,ENE,68,2.0,3.0,90,0.00,,OVC015,0.00,VWS V13.01,2013-09-01 14:15:00,
2013-09-01 10:20:00,68.6,65.2,29.80,ESE,107,3.0,5.0,89,0.00,,OVC015,0.00,VWS V13.01,2013-09-01 14:20:00,
2013-09-01 10:25:00,68.9,65.2,29.80,East,96,0.0,5.0,88,0.00,,OVC015,0.00,VWS V13.01,2013-09-01 14:25:00,
2013-09-01 10:30:00,69.4,65.0,29.80,East,101,3.0,5.0,86,0.00,,OVC015,0.00,VWS V13.01,2013-09-01 14:30:00,
2013-09-01 10:35:00,69.8,65.4,29.80,East,101,2.0,5.0,86,0.00,,OVC015,0.00,VWS V13.01,2013-09-01 14:35:00,
2013-09-01 10:40:00,70.1,65.7,29.80,East,101,0.0,3.0,86,0.00,,OVC015,0.00,VWS V13.01,2013-09-01 14:40:00,
2013-09-01 10:45:00,70.2,65.1,29.80,East,101,0.0,2.0,84,0.00,,OVC015,0.00,VWS V13.01,2013-09-01 14:45:00,
2013-09-01 10:50:00,70.4,65.3,29.80,East,101,0.0,2.0,84,0.00,,OVC015,0.00,VWS V13.01,2013-09-01 14:50:00,
2013-09-01 10:55:00,70.6,65.5,29.80,East,101,0.0,2.0,84,0.00,,OVC015,0.00,VWS V13.01,2013-09-01 14:55:00,
2013-09-01 11:00:00,70.5,65.1,29.80,ESE,103,0.0,1.0,83,0.00,,OVC015,0.00,VWS V13.01,2013-09-01 15:00:00,
2013-09-01 11:05:00,70.4,65.0,29.79,ESE,103,2.0,2.0,83,0.00,,OVC015,0.00,VWS V13.01,2013-09-01 15:05:00,
2013-09-01 11:10:00,70.4,65.7,29.79,ESE,116,2.0,4.0,85,0.00,,OVC015,0.00,VWS V13.01,2013-09-01 15:10:00,
2013-09-01 11:15:00,70.4,66.0,29.80,ESE,120,3.0,4.0,86,0.00,,OVC015,0.00,VWS V13.01,2013-09-01 15:15:00,
2013-09-01 11:20:00,70.6,65.9,29.80,ESE,108,2.0,5.0,85,0.00,,OVC015,0.00,VWS V13.01,2013-09-01 15:20:00,
2013-09-01 11:25:00,70.9,66.2,29.80,ESE,121,3.0,7.0,85,0.00,,OVC015,0.00,VWS V13.01,2013-09-01 15:25:00,
2013-09-01 11:30:00,71.0,65.9,29.80,ESE,121,3.0,5.0,84,0.00,,OVC015,0.00,VWS V13.01,2013-09-01 15:30:00,
2013-09-01 11:35:00,71.2,66.5,29.80,ESE,121,3.0,4.0,85,0.00,,OVC015,0.00,VWS V13.01,2013-09-01 15:35:00,
2013-09-01 11:40:00,71.6,66.5,29.80,ESE,121,3.0,4.0,84,0.00,,OVC015,0.00,VWS V13.01,2013-09-01 15:40:00,
2013-09-01 11:45:00,71.7,65.6,29.80,ESE,121,0.0,3.0,81,0.00,,OVC015,0.00,VWS V13.01,2013-09-01 15:45:00,
2013-09-01 11:50:00,71.1,65.3,29.80,ESE,121,1.0,3.0,82,0.00,,OVC015,0.00,VWS V13.01,2013-09-01 15:50:00,
2013-09-01 11:55:00,70.9,65.8,29.80,ESE,121,2.0,2.0,84,0.00,,OVC015,0.00,VWS V13.01,2013-09-01 15:55:00,
2013-09-01 12:00:00,70.8,65.4,29.80,ESE,121,0.0,3.0,83,0.00,,OVC015,0.00,VWS V13.01,2013-09-01 16:00:00,
2013-09-01 12:05:00,70.6,65.2,29.79,SSW,198,1.0,3.0,83,0.00,,OVC015,0.00,VWS V13.01,2013-09-01 16:05:00,
2013-09-01 12:10:00,70.4,65.3,29.80,SSW,199,2.0,3.0,84,0.00,,OVC015,0.00,VWS V13.01,2013-09-01 16:10:00,
2013-09-01 12:15:00,69.9,65.2,29.79,SW,215,4.0,5.0,85,0.00,,OVC015,0.00,VWS V13.01,2013-09-01 16:15:00,
2013-09-01 12:20:00,69.7,65.0,29.79,SW,215,5.0,5.0,85,0.00,,OVC015,0.00,VWS V13.01,2013-09-01 16:20:00,
2013-09-01 12:25:00,69.7,65.3,29.79,SSW,211,6.0,6.0,86,0.00,,OVC015,0.00,VWS V13.01,2013-09-01 16:25:00,
2013-09-01 12:30:00,69.6,65.2,29.79,SSW,207,5.0,6.0,86,0.00,,OVC015,0.00,VWS V13.01,2013-09-01 16:30:00,
2013-09-01 12:35:00,69.9,65.9,29.79,SSW,202,4.0,5.0,87,0.00,,OVC015,0.00,VWS V13.01,2013-09-01 16:35:00,
2013-09-01 12:40:00,70.0,65.6,29.79,SSW,194,5.0,5.0,86,0.00,,OVC015,0.00,VWS V13.01,2013-09-01 16:40:00,
2013-09-01 12:45:00,70.1,65.7,29.79,SSW,194,3.0,4.0,86,0.00,,OVC015,0.00,VWS V13.01,2013-09-01 16:45:00,
2013-09-01 12:51:00,70.2,65.8,29.78,SSE,150,5.0,5.0,86,0.00,,OVC015,0.00,VWS V13.01,2013-09-01 16:51:00,
2013-09-01 12:56:00,70.9,66.8,29.78,SE,126,5.0,6.0,87,0.00,,OVC015,0.00,VWS V13.01,2013-09-01 16:56:00,
2013-09-01 13:01:00,71.6,67.2,29.78,ESE,111,5.0,7.0,86,0.00,,OVC028,0.00,VWS V13.01,2013-09-01 17:01:00,
2013-09-01 13:06:00,71.8,66.7,29.78,ESE,117,3.0,7.0,84,0.00,,OVC028,0.00,VWS V13.01,2013-09-01 17:06:00,
2013-09-01 13:11:00,71.9,66.5,29.78,SE,134,4.0,7.0,83,0.00,,OVC028,0.00,VWS V13.01,2013-09-01 17:11:00,
2013-09-01 13:16:00,72.0,66.9,29.77,ESE,120,4.0,7.0,84,0.00,,OVC028,0.00,VWS V13.01,2013-09-01 17:16:00,
2013-09-01 13:21:00,72.1,67.0,29.77,ESE,114,4.0,8.0,84,0.00,,OVC028,0.00,VWS V13.01,2013-09-01 17:21:00,
2013-09-01 13:26:00,72.2,67.1,29.78,ESE,117,5.0,7.0,84,0.00,,OVC028,0.00,VWS V13.01,2013-09-01 17:26:00,
2013-09-01 13:31:00,72.3,67.2,29.77,ESE,117,5.0,7.0,84,0.00,,OVC028,0.00,VWS V13.01,2013-09-01 17:31:00,
2013-09-01 13:36:00,72.4,66.9,29.77,ESE,115,8.0,8.0,83,0.00,,OVC028,0.00,VWS V13.01,2013-09-01 17:36:00,
2013-09-01 13:41:00,72.2,67.1,29.77,ESE,113,5.0,8.0,84,0.00,,OVC028,0.00,VWS V13.01,2013-09-01 17:41:00,
2013-09-01 13:46:00,72.2,67.4,29.77,SE,124,7.0,8.0,85,0.00,,OVC028,0.00,VWS V13.01,2013-09-01 17:46:00,
2013-09-01 13:51:00,72.2,67.4,29.77,SE,125,4.0,9.0,85,0.00,,OVC028,0.00,VWS V13.01,2013-09-01 17:51:00,
2013-09-01 13:56:00,72.1,67.0,29.77,ESE,123,8.0,8.0,84,0.00,,OVC028,0.00,VWS V13.01,2013-09-01 17:56:00,
2013-09-01 14:01:00,71.9,66.8,29.77,SE,126,6.0,8.0,84,0.00,,OVC031,0.00,VWS V13.01,2013-09-01 18:01:00,
2013-09-01 14:06:00,71.9,67.2,29.77,SE,129,5.0,8.0,85,0.00,,OVC031,0.00,VWS V13.01,2013-09-01 18:06:00,
2013-09-01 14:11:00,71.8,66.7,29.76,SE,138,5.0,8.0,84,0.00,,OVC031,0.00,VWS V13.01,2013-09-01 18:11:00,
2013-09-01 14:16:00,71.6,66.2,29.77,SSE,151,6.0,7.0,83,0.00,,OVC031,0.00,VWS V13.01,2013-09-01 18:16:00,
2013-09-01 14:21:00,71.5,66.4,29.77,SE,140,7.0,8.0,84,0.00,,OVC031,0.00,VWS V13.01,2013-09-01 18:21:00,
2013-09-01 14:26:00,71.4,66.3,29.77,SSE,159,6.0,8.0,84,0.00,,OVC031,0.00,VWS V13.01,2013-09-01 18:26:00,
2013-09-01 14:31:00,71.3,66.2,29.77,SE,146,6.0,7.0,84,0.00,,OVC031,0.00,VWS V13.01,2013-09-01 18:31:00,
2013-09-01 14:36:00,71.4,66.7,29.77,SSE,156,6.0,8.0,85,0.00,,OVC031,0.00,VWS V13.01,2013-09-01 18:36:00,
2013-09-01 14:41:00,71.4,66.3,29.76,SSE,147,3.0,6.0,84,0.00,,OVC031,0.00,VWS V13.01,2013-09-01 18:41:00,
2013-09-01 14:46:00,71.4,67.0,29.76,SE,146,5.0,6.0,86,0.00,,OVC031,0.00,VWS V13.01,2013-09-01 18:46:00,
2013-09-01 14:51:00,71.3,66.9,29.76,SSE,159,3.0,7.0,86,0.00,,OVC031,0.00,VWS V13.01,2013-09-01 18:51:00,
2013-09-01 14:56:00,71.3,66.6,29.76,SE,142,6.0,8.0,85,0.00,,OVC031,0.00,VWS V13.01,2013-09-01 18:56:00,
2013-09-01 15:01:00,71.6,67.5,29.76,SE,140,5.0,7.0,87,0.00,,BKN034,0.00,VWS V13.01,2013-09-01 19:01:00,
2013-09-01 15:06:00,71.8,67.1,29.76,SE,146,5.0,7.0,85,0.00,,BKN034,0.00,VWS V13.01,2013-09-01 19:06:00,
2013-09-01 15:11:00,71.9,67.2,29.76,SSE,150,4.0,7.0,85,0.00,,BKN034,0.00,VWS V13.01,2013-09-01 19:11:00,
2013-09-01 15:16:00,71.7,67.3,29.76,SE,127,6.0,8.0,86,0.00,,BKN034,0.00,VWS V13.01,2013-09-01 19:16:00,
2013-09-01 15:21:00,71.9,67.2,29.76,SE,132,7.0,8.0,85,0.00,,BKN034,0.00,VWS V13.01,2013-09-01 19:21:00,
2013-09-01 15:26:00,72.0,66.9,29.75,SE,140,5.0,9.0,84,0.00,,BKN034,0.00,VWS V13.01,2013-09-01 19:26:00,
2013-09-01 15:31:00,72.0,67.6,29.75,SE,131,4.0,8.0,86,0.00,,BKN034,0.00,VWS V13.01,2013-09-01 19:31:00,
2013-09-01 15:36:00,72.1,67.3,29.75,ESE,120,4.0,7.0,85,0.00,,BKN034,0.00,VWS V13.01,2013-09-01 19:36:00,
2013-09-01 15:41:00,72.3,67.5,29.75,ESE,119,5.0,7.0,85,0.00,,BKN034,0.00,VWS V13.01,2013-09-01 19:41:00,
2013-09-01 15:46:00,72.2,67.1,29.76,SE,134,4.0,7.0,84,0.00,,BKN034,0.00,VWS V13.01,2013-09-01 19:46:00,
2013-09-01 15:51:00,72.2,67.1,29.76,SE,135,4.0,5.0,84,0.00,,BKN034,0.00,VWS V13.01,2013-09-01 19:51:00,
2013-09-01 15:56:00,72.0,66.9,29.75,SSE,150,4.0,7.0,84,0.00,,BKN034,0.00,VWS V13.01,2013-09-01 19:56:00,
2013-09-01 16:01:00,71.8,67.4,29.76,SSE,150,5.0,7.0,86,0.00,,OVC041,0.00,VWS V13.01,2013-09-01 20:01:00,
2013-09-01 16:06:00,71.9,67.5,29.76,SE,145,6.0,7.0,86,0.00,,OVC041,0.00,VWS V13.01,2013-09-01 20:06:00,
2013-09-01 16:11:00,72.0,67.2,29.76,SE,136,6.0,7.0,85,0.00,,OVC041,0.00,VWS V13.01,2013-09-01 20:11:00,
2013-09-01 16:16:00,71.9,67.5,29.75,SE,146,5.0,8.0,86,0.00,,OVC041,0.00,VWS V13.01,2013-09-01 20:16:00,
2013-09-01 16:21:00,71.9,67.8,29.75,SE,138,5.0,7.0,87,0.00,,OVC041,0.00,VWS V13.01,2013-09-01 20:21:00,
2013-09-01 16:26:00,72.0,67.2,29.75,SE,125,6.0,7.0,85,0.00,,OVC041,0.00,VWS V13.01,2013-09-01 20:26:00,
2013-09-01 16:31:00,72.2,67.8,29.75,SE,127,7.0,8.0,86,0.00,,OVC041,0.00,VWS V13.01,2013-09-01 20:31:00,
2013-09-01 16:36:00,72.1,67.3,29.74,SE,131,6.0,9.0,85,0.00,,OVC041,0.00,VWS V13.01,2013-09-01 20:36:00,
2013-09-01 16:42:00,71.9,66.8,29.74,SSE,150,6.0,9.0,84,0.00,,OVC041,0.00,VWS V13.01,2013-09-01 20:42:00,
2013-09-01 16:47:00,71.9,67.5,29.73,SE,139,7.0,9.0,86,0.00,,OVC041,0.00,VWS V13.01,2013-09-01 20:47:00,
2013-09-01 16:52:00,72.2,68.1,29.73,ESE,121,8.0,10.0,87,0.00,,OVC041,0.00,VWS V13.01,2013-09-01 20:52:00,
2013-09-01 16:57:00,72.5,68.4,29.73,ESE,121,7.0,10.0,87,0.00,,OVC041,0.00,VWS V13.01,2013-09-01 20:57:00,
2013-09-01 17:02:00,72.6,67.8,29.72,ESE,123,9.0,10.0,85,0.00,,FEW041,0.00,VWS V13.01,2013-09-01 21:02:00,
2013-09-01 17:07:00,72.7,68.6,29.72,ESE,118,9.0,10.0,87,0.00,,FEW041,0.00,VWS V13.01,2013-09-01 21:07:00,
2013-09-01 17:12:00,72.9,68.5,29.72,SE,125,6.0,9.0,86,0.00,,FEW041,0.00,VWS V13.01,2013-09-01 21:12:00,
2013-09-01 17:17:00,72.9,68.5,29.72,ESE,115,7.0,9.0,86,0.00,,FEW041,0.00,VWS V13.01,2013-09-01 21:17:00,
2013-09-01 17:22:00,72.7,68.3,29.72,ESE,111,8.0,10.0,86,0.00,,FEW041,0.00,VWS V13.01,2013-09-01 21:22:00,
2013-09-01 17:27:00,72.3,67.9,29.72,ESE,108,9.0,10.0,86,0.00,,FEW041,0.00,VWS V13.01,2013-09-01 21:27:00,
2013-09-01 17:32:00,72.0,68.3,29.72,ESE,120,8.0,9.0,88,0.00,,FEW041,0.00,VWS V13.01,2013-09-01 21:32:00,
2013-09-01 17:37:00,72.0,67.9,29.72,ESE,112,5.0,9.0,87,0.00,,FEW041,0.00,VWS V13.01,2013-09-01 21:37:00,
2013-09-01 17:42:00,72.0,67.9,29.72,ESE,109,8.0,8.0,87,0.00,,FEW041,0.00,VWS V13.01,2013-09-01 21:42:00,
2013-09-01 17:47:00,72.1,68.0,29.71,ESE,113,7.0,9.0,87,0.00,,FEW041,0.00,VWS V13.01,2013-09-01 21:47:00,
2013-09-01 17:52:00,72.1,68.0,29.71,ESE,105,8.0,8.0,87,0.00,,FEW041,0.00,VWS V13.01,2013-09-01 21:52:00,
2013-09-01 17:57:00,72.1,68.7,29.71,East,99,7.0,9.0,89,0.00,,FEW041,0.00,VWS V13.01,2013-09-01 21:57:00,
2013-09-01 18:02:00,72.0,67.9,29.71,ESE,109,8.0,9.0,87,0.00,,SCT019,0.00,VWS V13.01,2013-09-01 22:02:00,
2013-09-01 18:07:00,72.1,68.3,29.71,East,101,7.0,9.0,88,0.00,,SCT019,0.00,VWS V13.01,2013-09-01 22:07:00,
2013-09-01 18:12:00,72.0,68.3,29.72,East,101,6.0,8.0,88,0.00,,SCT019,0.00,VWS V13.01,2013-09-01 22:12:00,
2013-09-01 18:17:00,72.0,68.3,29.72,ESE,104,5.0,7.0,88,0.00,,SCT019,0.00,VWS V13.01,2013-09-01 22:17:00,
2013-09-01 18:22:00,72.2,68.4,29.72,ESE,107,5.0,9.0,88,0.00,,SCT019,0.00,VWS V13.01,2013-09-01 22:22:00,
2013-09-01 18:27:00,72.4,68.7,29.71,ESE,112,8.0,8.0,88,0.00,,SCT019,0.00,VWS V13.01,2013-09-01 22:27:00,
2013-09-01 18:32:00,72.4,69.0,29.71,ESE,104,7.0,8.0,89,0.00,,SCT019,0.00,VWS V13.01,2013-09-01 22:32:00,
2013-09-01 18:37:00,72.4,68.7,29.71,SE,135,6.0,9.0,88,0.00,,SCT019,0.00,VWS V13.01,2013-09-01 22:37:00,
2013-09-01 18:42:00,72.5,68.4,29.71,SSE,158,5.0,8.0,87,0.00,,SCT019,0.00,VWS V13.01,2013-09-01 22:42:00,
2013-09-01 18:47:00,72.6,68.2,29.71,South,171,6.0,8.0,86,0.00,,SCT019,0.00,VWS V13.01,2013-09-01 22:47:00,
2013-09-01 18:52:00,72.8,68.7,29.71,South,173,8.0,10.0,87,0.00,,SCT019,0.00,VWS V13.01,2013-09-01 22:52:00,
2013-09-01 18:57:00,72.8,68.7,29.70,SSE,167,9.0,10.0,87,0.00,,SCT019,0.00,VWS V13.01,2013-09-01 22:57:00,
2013-09-01 19:02:00,72.7,68.6,29.70,SSE,168,8.0,11.0,87,0.00,,CLR,0.00,VWS V13.01,2013-09-01 23:02:00,
2013-09-01 19:07:00,72.7,68.6,29.70,SSE,165,7.0,11.0,87,0.00,,CLR,0.00,VWS V13.01,2013-09-01 23:07:00,
2013-09-01 19:12:00,72.8,69.0,29.70,SSE,167,9.0,9.0,88,0.00,,CLR,0.00,VWS V13.01,2013-09-01 23:12:00,
2013-09-01 19:17:00,72.7,68.9,29.70,South,183,9.0,11.0,88,0.00,,CLR,0.00,VWS V13.01,2013-09-01 23:17:00,
2013-09-01 19:22:00,72.6,69.2,29.70,South,181,9.0,11.0,89,0.00,,CLR,0.00,VWS V13.01,2013-09-01 23:22:00,
2013-09-01 19:27:00,72.7,69.3,29.70,SSW,194,8.0,11.0,89,0.00,,CLR,0.00,VWS V13.01,2013-09-01 23:27:00,
2013-09-01 19:32:00,72.7,68.9,29.70,South,186,6.0,10.0,88,0.00,,CLR,0.00,VWS V13.01,2013-09-01 23:32:00,
2013-09-01 19:37:00,72.7,68.9,29.70,SSW,196,7.0,10.0,88,0.00,,CLR,0.00,VWS V13.01,2013-09-01 23:37:00,
2013-09-01 19:42:00,72.7,69.3,29.70,SSW,194,10.0,11.0,89,0.00,,CLR,0.00,VWS V13.01,2013-09-01 23:42:00,
2013-09-01 19:47:00,72.6,69.5,29.70,SSW,192,12.0,12.0,90,0.00,,CLR,0.00,VWS V13.01,2013-09-01 23:47:00,
2013-09-01 19:52:00,72.6,69.2,29.70,South,191,11.0,13.0,89,0.00,,CLR,0.00,VWS V13.01,2013-09-01 23:52:00,
2013-09-01 19:57:00,72.6,69.5,29.69,SSW,198,8.0,14.0,90,0.00,,CLR,0.00,VWS V13.01,2013-09-01 23:57:00,
2013-09-01 20:02:00,72.7,69.6,29.69,SSW,207,11.0,14.0,90,0.00,,CLR,0.00,VWS V13.01,2013-09-02 00:02:00,
2013-09-01 20:07:00,72.7,69.6,29.69,SSW,211,10.0,13.0,90,0.00,,CLR,0.00,VWS V13.01,2013-09-02 00:07:00,
2013-09-01 20:12:00,72.7,69.6,29.69,SSW,193,8.0,12.0,90,0.00,,CLR,0.00,VWS V13.01,2013-09-02 00:12:00,
2013-09-01 20:17:00,72.6,69.5,29.69,South,186,9.0,13.0,90,0.00,,CLR,0.00,VWS V13.01,2013-09-02 00:17:00,
2013-09-01 20:22:00,72.6,69.2,29.69,SSW,192,7.0,11.0,89,0.00,,CLR,0.00,VWS V13.01,2013-09-02 00:22:00,
2013-09-01 20:27:00,72.6,69.5,29.70,SSW,202,7.0,9.0,90,0.00,,CLR,0.00,VWS V13.01,2013-09-02 00:27:00,
2013-09-01 20:32:00,72.6,69.2,29.70,SSW,198,7.0,10.0,89,0.00,,CLR,0.00,VWS V13.01,2013-09-02 00:32:00,
2013-09-01 20:37:00,72.5,69.4,29.70,SW,219,7.0,8.0,90,0.00,,CLR,0.00,VWS V13.01,2013-09-02 00:37:00,
2013-09-01 20:42:00,72.4,69.0,29.70,SSW,211,6.0,9.0,89,0.00,,CLR,0.00,VWS V13.01,2013-09-02 00:42:00,
2013-09-01 20:47:00,72.5,69.4,29.71,SSW,209,7.0,11.0,90,0.00,,CLR,0.00,VWS V13.01,2013-09-02 00:47:00,
2013-09-01 20:52:00,72.5,69.7,29.71,SSW,202,7.0,9.0,91,0.00,,CLR,0.00,VWS V13.01,2013-09-02 00:52:00,
2013-09-01 20:57:00,72.5,69.7,29.71,SW,217,8.0,10.0,91,0.00,,CLR,0.00,VWS V13.01,2013-09-02 00:57:00,
2013-09-01 21:02:00,72.5,69.4,29.70,SSW,209,7.0,9.0,90,0.00,,SCT012,0.00,VWS V13.01,2013-09-02 01:02:00,
2013-09-01 21:08:00,72.4,69.3,29.70,SSW,199,6.0,9.0,90,0.00,,SCT012,0.00,VWS V13.01,2013-09-02 01:08:00,
2013-09-01 21:13:00,72.3,69.5,29.69,South,183,8.0,9.0,91,0.00,,SCT012,0.00,VWS V13.01,2013-09-02 01:13:00,
2013-09-01 21:18:00,72.3,69.5,29.69,SSW,196,7.0,9.0,91,0.00,,SCT012,0.00,VWS V13.01,2013-09-02 01:18:00,
2013-09-01 21:23:00,72.3,69.5,29.70,South,186,8.0,9.0,91,0.00,,SCT012,0.00,VWS V13.01,2013-09-02 01:23:00,
2013-09-01 21:28:00,72.3,69.5,29.69,South,183,7.0,9.0,91,0.00,,SCT012,0.00,VWS V13.01,2013-09-02 01:28:00,
2013-09-01 21:33:00,72.3,69.5,29.70,SSW,194,7.0,7.0,91,0.00,,SCT012,0.00,VWS V13.01,2013-09-02 01:33:00,
2013-09-01 21:38:00,72.3,69.8,29.70,SSW,198,5.0,7.0,92,0.00,,SCT012,0.00,VWS V13.01,2013-09-02 01:38:00,
2013-09-01 21:43:00,72.3,69.8,29.70,SSW,196,7.0,9.0,92,0.00,,SCT012,0.00,VWS V13.01,2013-09-02 01:43:00,
2013-09-01 21:48:00,72.4,69.9,29.69,South,183,8.0,9.0,92,0.00,,SCT012,0.00,VWS V13.01,2013-09-02 01:48:00,
2013-09-01 21:53:00,72.4,69.9,29.70,SSW,203,6.0,8.0,92,0.00,,SCT012,0.00,VWS V13.01,2013-09-02 01:53:00,
2013-09-01 21:58:00,72.5,70.4,29.70,SSW,198,7.0,8.0,93,0.00,,SCT012,0.00,VWS V13.01,2013-09-02 01:58:00,
2013-09-01 22:03:00,72.5,70.1,29.70,SSW,197,6.0,8.0,92,0.00,,OVC060,0.00,VWS V13.01,2013-09-02 02:03:00,
2013-09-01 22:08:00,72.5,70.4,29.70,SSW,198,7.0,7.0,93,0.00,,OVC060,0.00,VWS V13.01,2013-09-02 02:08:00,
2013-09-01 22:13:00,72.5,70.1,29.70,SSW,201,5.0,7.0,92,0.00,,OVC060,0.00,VWS V13.01,2013-09-02 02:13:00,
2013-09-01 22:18:00,72.6,70.2,29.70,SSW,194,6.0,7.0,92,0.00,,OVC060,0.00,VWS V13.01,2013-09-02 02:18:00,
2013-09-01 22:23:00,72.6,70.2,29.70,SSW,197,5.0,7.0,92,0.00,,OVC060,0.00,VWS V13.01,2013-09-02 02:23:00,
2013-09-01 22:28:00,72.6,70.2,29.70,SSW,196,6.0,7.0,92,0.00,,OVC060,0.00,VWS V13.01,2013-09-02 02:28:00,
2013-09-01 22:33:00,72.6,70.2,29.70,SSW,197,4.0,7.0,92,0.00,,OVC060,0.00,VWS V13.01,2013-09-02 02:33:00,
2013-09-01 22:38:00,72.6,70.2,29.70,SSW,195,5.0,6.0,92,0.00,,OVC060,0.00,VWS V13.01,2013-09-02 02:38:00,
2013-09-01 22:43:00,72.6,70.2,29.70,South,188,4.0,6.0,92,0.00,,OVC060,0.00,VWS V13.01,2013-09-02 02:43:00,
2013-09-01 22:48:00,72.5,70.1,29.70,SSW,205,4.0,6.0,92,0.00,,OVC060,0.00,VWS V13.01,2013-09-02 02:48:00,
2013-09-01 22:53:00,72.5,70.1,29.70,South,188,5.0,6.0,92,0.00,,OVC060,0.00,VWS V13.01,2013-09-02 02:53:00,
2013-09-01 22:58:00,72.5,70.4,29.70,South,187,4.0,6.0,93,0.00,,OVC060,0.00,VWS V13.01,2013-09-02 02:58:00,
2013-09-01 23:03:00,72.5,70.4,29.71,South,190,4.0,5.0,93,0.00,,OVC065,0.00,VWS V13.01,2013-09-02 03:03:00,
2013-09-01 23:08:00,72.4,69.9,29.70,South,190,3.0,4.0,92,0.00,,OVC065,0.00,VWS V13.01,2013-09-02 03:08:00,
2013-09-01 23:13:00,72.3,69.8,29.71,South,190,3.0,4.0,92,0.00,,OVC065,0.00,VWS V13.01,2013-09-02 03:13:00,
2013-09-01 23:18:00,72.4,69.9,29.71,South,190,3.0,4.0,92,0.00,,OVC065,0.00,VWS V13.01,2013-09-02 03:18:00,
2013-09-01 23:23:00,72.4,69.9,29.72,West,261,2.0,6.0,92,0.00,,OVC065,0.00,VWS V13.01,2013-09-02 03:23:00,
2013-09-01 23:28:00,72.2,69.4,29.72,WNW,286,3.0,5.0,91,0.00,,OVC065,0.00,VWS V13.01,2013-09-02 03:28:00,
2013-09-01 23:33:00,72.0,68.9,29.71,NW,304,1.0,6.0,90,0.00,,OVC065,0.00,VWS V13.01,2013-09-02 03:33:00,
2013-09-01 23:38:00,71.7,68.6,29.71,WSW,244,4.0,5.0,90,0.00,,OVC065,0.00,VWS V13.01,2013-09-02 03:38:00,
2013-09-01 23:43:00,71.5,68.7,29.71,SW,233,3.0,5.0,91,0.00,,OVC065,0.00,VWS V13.01,2013-09-02 03:43:00,
2013-09-01 23:48:00,71.4,68.6,29.71,SW,236,6.0,7.0,91,0.00,,OVC065,0.00,VWS V13.01,2013-09-02 03:48:00,
2013-09-01 23:53:00,71.4,68.6,29.71,WSW,246,1.0,6.0,91,0.00,,OVC065,0.00,VWS V13.01,2013-09-02 03:53:00,
2013-09-01 23:58:00,71.2,68.4,29.71,SSW,209,4.0,6.0,91,0.00,,OVC065,0.00,VWS V13.01,2013-09-02 03:58:00,